Time;durP1;ratioP1;P1;durP2;ratioP2;P2;SDS_P1;SDS_P2;PMS_P1;PMS_P2;Temp;Humidity;BMP_temperature;BMP_pressure;BME280_temperature;BME280_humidity;BME280_pressure;Samples;Min_cycle;Max_cycle;Signal;HPM_P1;HPM_P2
2023/10/23 00:00:16;;;;;;;0.50;0.50;;;;;;;30.68;27.90;99109.50;7392251;19;20021;-79
2023/10/23 00:02:42;;;;;;;0.20;0.20;;;;;;;30.48;28.05;99108.34;7392408;19;20373;-78
2023/10/23 00:05:08;;;;;;;0.20;0.20;;;;;;;30.14;28.16;99103.50;7393850;19;20010;-78
2023/10/23 00:07:34;;;;;;;0.55;0.55;;;;;;;29.82;28.89;99103.09;7392346;19;20014;-79
2023/10/23 00:10:00;;;;;;;0.20;0.20;;;;;;;29.61;28.73;99099.63;7393866;19;20030;-78
2023/10/23 00:12:27;;;;;;;0.43;0.32;;;;;;;28.98;29.36;99103.66;7391945;19;20035;-79
2023/10/23 00:14:53;;;;;;;0.68;0.68;;;;;;;28.60;29.67;99104.09;7395403;19;19998;-78
2023/10/23 00:17:19;;;;;;;0.22;0.22;;;;;;;28.46;29.98;99109.66;7390517;19;20003;-79
2023/10/23 00:19:45;;;;;;;0.10;0.10;;;;;;;28.84;29.98;99105.66;7392071;19;20029;-79
2023/10/23 00:22:11;;;;;;;0.60;0.60;;;;;;;29.08;29.39;99107.91;7392774;19;20353;-79
2023/10/23 00:24:37;;;;;;;0.20;0.20;;;;;;;29.16;29.24;99110.56;7394569;19;20479;-79
2023/10/23 00:27:04;;;;;;;0.17;0.17;;;;;;;29.07;29.26;99105.66;7392639;19;19999;-78
2023/10/23 00:29:30;;;;;;;0.82;0.35;;;;;;;29.04;29.12;99106.91;7392589;19;20014;-79
2023/10/23 00:31:56;;;;;;;0.47;0.47;;;;;;;28.94;29.37;99109.13;7394506;19;20523;-79
2023/10/23 00:34:22;;;;;;;0.32;0.32;;;;;;;28.91;29.54;99113.25;7392525;19;20014;-78
2023/10/23 00:36:48;;;;;;;0.25;0.25;;;;;;;28.75;29.27;99115.09;7391225;19;20046;-79
2023/10/23 00:39:14;;;;;;;0.20;0.20;;;;;;;28.70;29.50;99119.06;7392307;19;20095;-78
2023/10/23 00:41:42;;;;;;;0.85;0.55;;;;;;;28.62;29.83;99112.84;7392044;19;20006;-78
2023/10/23 00:44:08;;;;;;;0.30;0.30;;;;;;;28.67;29.27;99114.59;7392278;19;20032;-79
2023/10/23 00:46:34;;;;;;;2.30;0.45;;;;;;;28.53;29.37;99117.28;7390630;19;20031;-79
2023/10/23 00:49:01;;;;;;;0.10;0.10;;;;;;;28.33;29.76;99110.97;7394743;19;20483;-79
2023/10/23 00:51:27;;;;;;;0.22;0.22;;;;;;;28.33;29.57;99116.72;7392891;19;20010;-79
2023/10/23 00:53:55;;;;;;;0.57;0.57;;;;;;;28.08;30.06;99116.50;7394118;19;20003;-79
2023/10/23 00:56:23;;;;;;;0.45;0.40;;;;;;;27.95;30.07;99122.00;7391227;19;20385;-79
2023/10/23 00:58:50;;;;;;;0.30;0.30;;;;;;;27.90;30.12;99120.97;7393208;19;20449;-78
2023/10/23 01:01:17;;;;;;;0.20;0.20;;;;;;;27.71;30.20;99126.84;7394011;19;20455;-79
2023/10/23 01:03:43;;;;;;;0.32;0.32;;;;;;;27.34;30.76;99134.25;7388730;19;20086;-79
2023/10/23 01:06:12;;;;;;;0.20;0.20;;;;;;;27.70;30.33;99142.50;7389112;19;20066;-78
2023/10/23 01:08:38;;;;;;;1.05;0.93;;;;;;;27.94;30.17;99132.69;7387476;19;20010;-78
2023/10/23 01:11:05;;;;;;;0.68;0.68;;;;;;;28.21;29.80;99141.72;7389322;19;20006;-78
2023/10/23 01:13:31;;;;;;;2.35;0.50;;;;;;;28.91;29.64;99131.19;7391907;19;20014;-79
2023/10/23 01:15:57;;;;;;;0.35;0.35;;;;;;;28.72;29.59;99127.81;7389585;19;20025;-78
2023/10/23 01:18:24;;;;;;;0.73;0.73;;;;;;;29.02;28.94;99127.59;7389215;19;20018;-78
2023/10/23 01:20:50;;;;;;;0.57;0.57;;;;;;;29.14;28.76;99127.59;7391655;19;20010;-79
2023/10/23 01:23:16;;;;;;;0.38;0.38;;;;;;;29.01;29.05;99136.81;7393865;19;20100;-79
2023/10/23 01:25:42;;;;;;;0.20;0.20;;;;;;;28.89;29.19;99131.06;7392098;19;20094;-79
2023/10/23 01:28:08;;;;;;;2.28;0.73;;;;;;;29.01;29.21;99131.09;7392908;19;20018;-79
2023/10/23 01:30:35;;;;;;;0.20;0.20;;;;;;;29.01;28.82;99128.22;7389293;19;20014;-79
2023/10/23 01:33:01;;;;;;;0.35;0.30;;;;;;;29.03;29.12;99122.59;7391003;19;20013;-78
2023/10/23 01:35:27;;;;;;;0.38;0.38;;;;;;;29.05;28.86;99119.88;7389260;19;20047;-79
2023/10/23 01:37:55;;;;;;;0.10;0.10;;;;;;;29.05;29.37;99119.88;7391734;19;20426;-78
2023/10/23 01:40:21;;;;;;;0.40;0.35;;;;;;;29.08;29.15;99125.13;7390101;19;20007;-78
2023/10/23 01:42:47;;;;;;;0.22;0.22;;;;;;;28.82;29.20;99120.59;7389981;19;20003;-79
2023/10/23 01:45:13;;;;;;;0.28;0.28;;;;;;;28.51;29.38;99125.72;7389178;19;20358;-78
2023/10/23 01:47:40;;;;;;;0.57;0.35;;;;;;;28.67;29.09;99121.09;7389276;19;20014;-78
2023/10/23 01:50:06;;;;;;;0.28;0.28;;;;;;;28.28;29.81;99134.25;7390900;19;20010;-79
2023/10/23 01:52:32;;;;;;;2.53;0.52;;;;;;;28.34;29.58;99138.28;7389217;19;20017;-79
2023/10/23 01:54:59;;;;;;;0.13;0.13;;;;;;;28.08;29.58;99139.41;7392777;19;20013;-79
2023/10/23 01:57:25;;;;;;;1.33;0.55;;;;;;;27.97;29.85;99145.03;7388411;19;20018;-78
2023/10/23 01:59:52;;;;;;;0.25;0.25;;;;;;;28.09;29.71;99140.88;7388419;19;20014;-79
2023/10/23 02:02:18;;;;;;;0.32;0.32;;;;;;;28.15;29.78;99144.19;7388563;19;20082;-79
2023/10/23 02:04:45;;;;;;;0.30;0.30;;;;;;;28.09;29.73;99149.47;7390423;19;20369;-79
2023/10/23 02:07:11;;;;;;;0.30;0.30;;;;;;;27.95;29.67;99139.94;7389905;19;20433;-79
2023/10/23 02:09:37;;;;;;;0.20;0.20;;;;;;;27.91;29.65;99136.81;7388940;19;20086;-79
2023/10/23 02:12:04;;;;;;;0.30;0.30;;;;;;;28.01;29.87;99136.75;7391304;19;20010;-79
2023/10/23 02:14:31;;;;;;;1.20;0.50;;;;;;;28.15;29.72;99135.59;7389536;19;19999;-78
2023/10/23 02:16:57;;;;;;;0.20;0.20;;;;;;;27.91;30.18;99142.53;7388257;19;20015;-79
2023/10/23 02:19:24;;;;;;;0.10;0.10;;;;;;;27.91;30.21;99139.66;7387902;19;20485;-79
2023/10/23 02:21:50;;;;;;;0.22;0.22;;;;;;;28.25;29.33;99139.09;7389548;19;20014;-78
2023/10/23 02:24:17;;;;;;;0.20;0.20;;;;;;;27.84;29.88;99140.63;7388540;19;20018;-79
2023/10/23 02:26:43;;;;;;;0.47;0.20;;;;;;;27.74;30.04;99145.66;7387830;19;20007;-78
2023/10/23 02:29:10;;;;;;;0.52;0.52;;;;;;;27.67;29.81;99138.03;7388466;19;20689;-79
2023/10/23 02:31:36;;;;;;;0.32;0.32;;;;;;;27.67;30.07;99138.03;7387568;19;20028;-79
2023/10/23 02:34:03;;;;;;;1.23;0.77;;;;;;;27.36;30.30;99138.06;7387891;19;20035;-79
2023/10/23 02:36:29;;;;;;;0.32;0.32;;;;;;;27.71;29.50;99144.78;7386416;19;20515;-79
2023/10/23 02:38:55;;;;;;;0.20;0.20;;;;;;;27.67;29.90;99143.75;7388751;19;20079;-78
2023/10/23 02:41:21;;;;;;;0.40;0.40;;;;;;;27.24;30.10;99131.47;7388323;19;20030;-79
2023/10/23 02:43:49;;;;;;;0.30;0.30;;;;;;;27.95;29.34;99134.19;7388009;19;20018;-79
2023/10/23 02:46:16;;;;;;;0.30;0.28;;;;;;;27.87;29.60;99121.47;7386297;19;20078;-79
2023/10/23 02:48:42;;;;;;;0.52;0.52;;;;;;;27.95;29.44;99128.47;7387753;19;20003;-79
2023/10/23 02:51:08;;;;;;;0.52;0.52;;;;;;;27.60;29.97;99134.00;7387832;19;20021;-79
2023/10/23 02:53:35;;;;;;;0.17;0.17;;;;;;;27.83;30.01;99119.06;7388390;19;20006;-79
2023/10/23 02:56:02;;;;;;;0.30;0.30;;;;;;;28.94;29.12;99120.59;7388851;19;20014;-79
2023/10/23 02:58:28;;;;;;;0.20;0.20;;;;;;;28.66;29.15;99121.69;7389014;19;20370;-79
2023/10/23 03:00:54;;;;;;;0.45;0.40;;;;;;;28.41;29.21;99114.34;7387011;19;20035;-79
2023/10/23 03:03:20;;;;;;;0.20;0.20;;;;;;;28.48;29.05;99115.50;7388831;19;20018;-79
2023/10/23 03:05:47;;;;;;;0.98;0.52;;;;;;;28.45;29.28;99111.03;7387351;19;20018;-79
2023/10/23 03:08:14;;;;;;;0.38;0.38;;;;;;;27.99;29.83;99117.31;7387176;19;20011;-77
2023/10/23 03:10:40;;;;;;;0.50;0.50;;;;;;;27.55;29.96;99125.75;7387107;19;20054;-78
2023/10/23 03:13:07;;;;;;;3.55;0.60;;;;;;;27.29;30.06;99121.06;7387207;19;20099;-78
2023/10/23 03:15:33;;;;;;;0.10;0.10;;;;;;;27.60;29.94;99133.25;7386707;19;20019;-78
2023/10/23 03:18:03;;;;;;;0.40;0.30;;;;;;;26.71;30.77;99132.69;7386921;19;20006;-78
2023/10/23 03:20:30;;;;;;;0.30;0.30;;;;;;;25.87;31.14;99129.28;7386861;19;20017;-79
2023/10/23 03:22:56;;;;;;;0.13;0.13;;;;;;;22.97;34.56;99131.31;7387372;19;20044;-78
2023/10/23 03:25:23;;;;;;;0.47;0.43;;;;;;;22.78;34.80;99133.91;7389112;19;20354;-78
2023/10/23 03:27:49;;;;;;;0.40;0.40;;;;;;;23.63;34.14;99139.84;7387566;19;20019;-79
2023/10/23 03:30:16;;;;;;;0.73;0.43;;;;;;;23.60;33.79;99141.03;7388247;19;20018;-79
2023/10/23 03:32:42;;;;;;;0.25;0.25;;;;;;;22.75;35.00;99150.00;7388015;19;20066;-78
2023/10/23 03:35:08;;;;;;;3.53;0.52;;;;;;;25.19;33.02;99134.06;7392863;19;20017;-79
2023/10/23 03:37:34;;;;;;;0.20;0.20;;;;;;;27.73;29.78;99124.88;7392225;19;20342;-79
2023/10/23 03:40:00;;;;;;;0.22;0.22;;;;;;;24.72;32.75;99137.44;7394550;19;20086;-78
2023/10/23 03:42:27;;;;;;;0.25;0.25;;;;;;;24.33;33.57;99136.44;7393944;19;20014;-79
2023/10/23 03:44:53;;;;;;;0.13;0.13;;;;;;;22.85;34.48;99141.63;7393780;19;20436;-79
2023/10/23 03:47:19;;;;;;;0.25;0.25;;;;;;;22.34;35.54;99139.97;7393391;19;20003;-79
2023/10/23 03:49:47;;;;;;;0.20;0.20;;;;;;;22.22;35.49;99144.56;7394513;19;20457;-78
2023/10/23 03:52:13;;;;;;;0.38;0.38;;;;;;;22.44;35.72;99132.34;7394442;19;20035;-79
2023/10/23 03:54:39;;;;;;;0.30;0.30;;;;;;;22.07;36.06;99129.69;7394099;19;20006;-79
2023/10/23 03:57:06;;;;;;;0.20;0.20;;;;;;;21.43;36.83;99127.34;7394495;19;20010;-78
2023/10/23 03:59:32;;;;;;;0.57;0.45;;;;;;;24.06;34.14;99124.28;7394954;19;20058;-78
2023/10/23 04:01:58;;;;;;;0.30;0.30;;;;;;;23.99;34.36;99130.75;7395892;19;20405;-79
2023/10/23 04:04:24;;;;;;;0.20;0.20;;;;;;;22.48;35.97;99127.03;7394382;19;20361;-79
2023/10/23 04:06:50;;;;;;;0.20;0.20;;;;;;;22.95;35.08;99119.78;7393229;19;20007;-79
2023/10/23 04:09:16;;;;;;;0.65;0.65;;;;;;;21.73;36.57;99138.63;7394251;19;20011;-78
2023/10/23 04:11:42;;;;;;;0.15;0.15;;;;;;;21.96;36.42;99132.94;7392206;19;20011;-79
2023/10/23 04:14:09;;;;;;;0.60;0.60;;;;;;;22.01;36.48;99129.91;7395393;19;20457;-78
2023/10/23 04:16:35;;;;;;;0.85;0.85;;;;;;;22.92;36.20;99124.53;7391052;19;20015;-79
2023/10/23 04:19:02;;;;;;;0.30;0.30;;;;;;;21.27;37.37;99131.53;7393131;19;20014;-79
2023/10/23 04:21:28;;;;;;;0.73;0.55;;;;;;;21.12;37.91;99138.69;7392891;19;20034;-79
2023/10/23 04:23:54;;;;;;;0.57;0.57;;;;;;;20.61;38.04;99138.03;7394546;19;20083;-79
2023/10/23 04:26:20;;;;;;;0.52;0.52;;;;;;;19.92;39.32;99138.31;7393259;19;20029;-78
2023/10/23 04:28:46;;;;;;;0.10;0.10;;;;;;;20.60;38.33;99141.41;7392987;19;20015;-78
2023/10/23 04:31:12;;;;;;;0.47;0.47;;;;;;;20.11;38.92;99133.13;7394360;19;20365;-78
2023/10/23 04:33:38;;;;;;;1.30;0.40;;;;;;;19.99;39.17;99148.91;7391581;19;20036;-78
2023/10/23 04:36:04;;;;;;;2.75;0.50;;;;;;;22.42;36.67;99140.69;7390541;19;20011;-78
2023/10/23 04:38:31;;;;;;;0.50;0.50;;;;;;;20.33;38.85;99144.56;7391757;19;20011;-78
2023/10/23 04:40:57;;;;;;;0.70;0.47;;;;;;;20.10;39.04;99135.19;7395087;19;20367;-78
2023/10/23 04:43:23;;;;;;;0.43;0.43;;;;;;;19.30;40.95;99136.38;7392040;19;20387;-78
2023/10/23 04:45:52;;;;;;;0.40;0.40;;;;;;;20.45;39.33;99133.66;7390497;19;20461;-78
2023/10/23 04:48:19;;;;;;;0.40;0.40;;;;;;;20.10;39.29;99120.28;7390588;19;20465;-78
2023/10/23 04:50:45;;;;;;;9.13;0.68;;;;;;;19.55;39.82;99123.41;7391455;19;20457;-78
2023/10/23 04:53:11;;;;;;;1.00;0.38;;;;;;;18.73;41.58;99120.66;7393348;19;20396;-78
2023/10/23 04:55:38;;;;;;;0.20;0.20;;;;;;;20.40;39.55;99109.88;7392584;19;20072;-78
2023/10/23 04:58:06;;;;;;;0.30;0.30;;;;;;;20.49;39.08;99111.41;7394162;19;20020;-78
2023/10/23 05:00:36;;;;;;;0.32;0.32;;;;;;;21.48;37.96;99109.41;7392830;19;20014;-78
2023/10/23 05:03:05;;;;;;;0.35;0.35;;;;;;;21.57;37.59;99103.16;7392281;19;20074;-78
2023/10/23 05:05:32;;;;;;;0.28;0.28;;;;;;;22.83;35.89;99099.59;7392490;19;20111;-78
2023/10/23 05:07:59;;;;;;;0.50;0.50;;;;;;;23.25;35.35;99091.13;7392580;19;20019;-78
2023/10/23 05:10:26;;;;;;;2.25;2.15;;;;;;;24.04;34.15;99098.44;7391303;19;20081;-78
2023/10/23 05:12:53;;;;;;;0.43;0.43;;;;;;;23.94;34.27;99095.53;7394279;19;20007;-78
2023/10/23 05:15:19;;;;;;;0.10;0.10;;;;;;;23.73;33.94;99100.16;7392658;19;20079;-78
2023/10/23 05:17:45;;;;;;;0.30;0.30;;;;;;;22.43;35.33;99102.50;7390185;19;20013;-78
2023/10/23 05:20:12;;;;;;;1.00;0.90;;;;;;;22.13;35.69;99108.31;7389869;19;20006;-78
2023/10/23 05:22:38;;;;;;;4.15;1.13;;;;;;;21.80;36.45;99107.44;7390477;19;20103;-78
2023/10/23 05:25:04;;;;;;;0.35;0.35;;;;;;;21.26;37.26;99101.69;7391612;19;20031;-78
2023/10/23 05:27:30;;;;;;;0.47;0.47;;;;;;;21.34;37.05;99110.94;7392748;19;20011;-78
2023/10/23 05:29:56;;;;;;;0.10;0.10;;;;;;;22.56;35.69;99109.97;7393473;19;20006;-78
2023/10/23 05:32:22;;;;;;;0.30;0.30;;;;;;;21.58;36.28;99113.94;7391640;19;20024;-78
2023/10/23 05:34:48;;;;;;;3.83;0.75;;;;;;;21.13;37.20;99117.56;7391431;19;20022;-77
2023/10/23 05:37:14;;;;;;;2.30;0.60;;;;;;;20.07;38.46;99118.59;7388769;19;20014;-78
2023/10/23 05:39:40;;;;;;;0.45;0.45;;;;;;;19.70;39.03;99127.63;7389826;19;20010;-78
2023/10/23 05:42:07;;;;;;;0.60;0.60;;;;;;;19.28;39.51;99127.69;7391253;19;20013;-78
2023/10/23 05:44:33;;;;;;;0.20;0.20;;;;;;;18.98;40.42;99121.03;7391517;19;20430;-77
2023/10/23 05:46:59;;;;;;;0.20;0.20;;;;;;;18.91;40.28;99114.78;7390952;19;20015;-78
2023/10/23 05:49:25;;;;;;;0.50;0.50;;;;;;;19.61;39.73;99111.94;7391392;19;20083;-78
2023/10/23 05:51:51;;;;;;;0.45;0.45;;;;;;;20.07;38.71;99115.78;7392249;19;20013;-78
2023/10/23 05:54:17;;;;;;;0.45;0.45;;;;;;;20.02;39.09;99108.19;7391922;19;20035;-78
2023/10/23 05:56:43;;;;;;;5.90;0.90;;;;;;;20.06;39.23;99108.59;7390841;19;20014;-78
2023/10/23 05:59:09;;;;;;;0.40;0.40;;;;;;;19.66;39.47;99105.41;7391775;19;20341;-78
2023/10/23 06:01:38;;;;;;;1.17;0.52;;;;;;;18.71;40.96;99114.78;7389688;19;20006;-78
2023/10/23 06:04:05;;;;;;;3.38;1.92;;;;;;;20.05;39.24;99115.56;7391916;19;20034;-78
2023/10/23 06:06:31;;;;;;;1.02;1.02;;;;;;;19.89;39.11;99111.16;7388583;19;20022;-78
2023/10/23 06:08:57;;;;;;;0.73;0.65;;;;;;;19.87;39.49;99116.59;7388980;19;20023;-77
2023/10/23 06:11:23;;;;;;;1.00;1.00;;;;;;;19.18;40.29;99112.56;7390789;19;20030;-77
2023/10/23 06:13:49;;;;;;;0.77;0.77;;;;;;;18.79;41.20;99122.03;7390721;19;20353;-78
2023/10/23 06:16:15;;;;;;;1.65;0.30;;;;;;;18.86;40.72;99114.94;7388124;19;20014;-78
2023/10/23 06:18:42;;;;;;;0.20;0.20;;;;;;;18.50;41.98;99122.47;7390192;19;20544;-78
2023/10/23 06:21:08;;;;;;;0.52;0.52;;;;;;;18.51;41.50;99136.03;7391047;19;20021;-77
2023/10/23 06:23:39;;;;;;;0.20;0.20;;;;;;;17.67;42.85;99127.06;7391013;19;20017;-78
2023/10/23 06:26:08;;;;;;;0.77;0.77;;;;;;;17.69;43.27;99130.84;7388845;19;20014;-78
2023/10/23 06:28:35;;;;;;;0.75;0.50;;;;;;;17.67;43.11;99133.41;7389220;19;20006;-78
2023/10/23 06:31:09;;;;;;;0.90;0.65;;;;;;;17.84;42.97;99135.94;7388889;19;20007;-77
2023/10/23 06:33:38;;;;;;;0.30;0.30;;;;;;;17.38;43.90;99138.06;7388995;19;20070;-78
2023/10/23 06:36:06;;;;;;;1.95;0.60;;;;;;;17.41;44.51;99130.59;7389453;19;20353;-78
2023/10/23 06:38:32;;;;;;;0.95;0.95;;;;;;;17.86;43.76;99122.81;7387539;19;20423;-78
2023/10/23 06:41:03;;;;;;;0.55;0.55;;;;;;;18.80;42.67;99123.53;7387723;19;20039;-79
2023/10/23 06:43:29;;;;;;;1.90;1.05;;;;;;;19.59;41.02;99123.81;7388851;19;20785;-78
2023/10/23 06:45:55;;;;;;;0.95;0.95;;;;;;;18.93;42.32;99131.16;7387653;19;20014;-78
2023/10/23 06:48:21;;;;;;;0.32;0.32;;;;;;;18.84;42.45;99123.19;7389220;19;20487;-78
2023/10/23 06:50:47;;;;;;;0.30;0.30;;;;;;;18.92;42.53;99129.66;7388271;19;20007;-78
2023/10/23 06:53:17;;;;;;;0.90;0.82;;;;;;;19.02;42.56;99122.22;7391868;19;20410;-79
2023/10/23 06:55:48;;;;;;;0.88;0.88;;;;;;;19.05;42.22;99121.13;7387773;19;20086;-78
2023/10/23 06:58:14;;;;;;;0.90;0.90;;;;;;;19.15;42.42;99124.19;7388746;19;20014;-78
2023/10/23 07:00:40;;;;;;;0.57;0.57;;;;;;;19.17;42.33;99122.34;7388784;19;20029;-78
2023/10/23 07:03:07;;;;;;;0.98;0.90;;;;;;;19.36;42.04;99124.97;7390273;19;20021;-78
2023/10/23 07:05:33;;;;;;;2.40;0.73;;;;;;;19.35;42.22;99121.38;7389547;19;20077;-79
2023/10/23 07:07:59;;;;;;;2.67;1.60;;;;;;;19.06;42.57;99121.88;7387620;19;20048;-78
2023/10/23 07:10:25;;;;;;;2.10;1.75;;;;;;;19.18;42.42;99126.69;7390589;19;20035;-78
2023/10/23 07:12:53;;;;;;;1.25;1.17;;;;;;;19.13;42.70;99130.41;7388921;19;20015;-79
2023/10/23 07:15:20;;;;;;;0.63;0.63;;;;;;;19.13;42.78;99133.22;7387953;19;20023;-79
2023/10/23 07:17:46;;;;;;;0.52;0.52;;;;;;;19.63;43.01;99135.50;7388777;19;20010;-79
2023/10/23 07:20:16;;;;;;;0.85;0.85;;;;;;;19.68;42.81;99131.75;7388430;19;20006;-79
2023/10/23 07:22:43;;;;;;;0.50;0.50;;;;;;;19.93;42.50;99139.81;7388010;19;20023;-79
2023/10/23 07:25:11;;;;;;;0.68;0.68;;;;;;;20.04;42.40;99145.91;7386049;19;20043;-79
2023/10/23 07:27:39;;;;;;;4.28;0.70;;;;;;;22.61;39.26;99138.16;7387194;19;20010;-79
2023/10/23 07:30:06;;;;;;;1.13;1.10;;;;;;;23.46;38.10;99139.06;7388370;19;20027;-79
2023/10/23 07:32:34;;;;;;;0.40;0.40;;;;;;;23.60;37.95;99134.59;7386125;19;20010;-78
2023/10/23 07:35:03;;;;;;;0.65;0.65;;;;;;;24.17;37.81;99137.22;7386772;19;20577;-77
2023/10/23 07:37:30;;;;;;;0.43;0.43;;;;;;;23.26;38.85;99140.91;7385276;19;20009;-78
2023/10/23 07:39:57;;;;;;;0.32;0.32;;;;;;;23.17;38.95;99135.91;7387255;19;20025;-79
2023/10/23 07:42:23;;;;;;;1.25;1.02;;;;;;;23.76;38.77;99136.69;7387285;19;20646;-79
2023/10/23 07:44:49;;;;;;;1.52;1.23;;;;;;;23.44;38.96;99142.50;7387465;19;20030;-78
2023/10/23 07:47:17;;;;;;;1.23;1.23;;;;;;;23.47;39.42;99147.03;7385582;19;20014;-78
2023/10/23 07:49:44;;;;;;;0.57;0.57;;;;;;;23.76;39.02;99148.06;7385748;19;20034;-78
2023/10/23 07:52:10;;;;;;;0.80;0.80;;;;;;;24.19;39.29;99140.22;7388401;19;20015;-79
2023/10/23 07:54:36;;;;;;;0.20;0.20;;;;;;;25.13;38.09;99145.00;7385685;19;20015;-78
2023/10/23 07:57:03;;;;;;;0.22;0.22;;;;;;;24.18;39.32;99142.31;7386900;19;20074;-78
2023/10/23 07:59:29;;;;;;;2.30;0.73;;;;;;;23.30;40.90;99141.28;7384987;19;20347;-79
2023/10/23 08:01:56;;;;;;;0.55;0.55;;;;;;;22.63;42.23;99145.34;7385288;19;20011;-79
2023/10/23 08:04:22;;;;;;;1.67;0.80;;;;;;;23.16;42.17;99142.91;7387113;19;20052;-78
2023/10/23 08:06:48;;;;;;;2.67;0.73;;;;;;;23.13;42.50;99141.22;7386028;19;20027;-78
2023/10/23 08:09:14;;;;;;;2.33;0.52;;;;;;;23.18;42.97;99140.22;7388775;19;20035;-79
2023/10/23 08:11:40;;;;;;;0.38;0.30;;;;;;;23.55;42.62;99150.56;7386277;19;20078;-79
2023/10/23 08:14:07;;;;;;;0.40;0.40;;;;;;;23.55;43.37;99141.25;7387884;19;20010;-80
2023/10/23 08:16:33;;;;;;;5.15;0.88;;;;;;;22.91;44.22;99136.47;7384891;19;20091;-79
2023/10/23 08:18:59;;;;;;;0.40;0.40;;;;;;;24.09;43.07;99138.06;7386791;19;20006;-79
2023/10/23 08:21:28;;;;;;;0.25;0.25;;;;;;;24.45;42.81;99131.00;7391772;19;20032;-79
2023/10/23 08:23:55;;;;;;;0.30;0.28;;;;;;;24.84;42.39;99124.94;7393240;19;20104;-79
2023/10/23 08:26:22;;;;;;;0.30;0.30;;;;;;;26.17;41.42;99123.75;7390193;19;20025;-79
2023/10/23 08:28:50;;;;;;;1.23;0.63;;;;;;;26.51;40.55;99119.81;7392529;19;20082;-79
2023/10/23 08:31:17;;;;;;;0.30;0.30;;;;;;;26.72;40.32;99119.91;7392844;19;20006;-78
2023/10/23 08:33:43;;;;;;;1.30;0.50;;;;;;;26.78;40.62;99120.38;7390840;19;20505;-79
2023/10/23 08:36:09;;;;;;;0.20;0.20;;;;;;;26.94;40.88;99127.22;7390023;19;20354;-79
2023/10/23 08:38:35;;;;;;;0.30;0.30;;;;;;;27.19;40.68;99129.69;7391083;19;20377;-79
2023/10/23 08:41:03;;;;;;;0.20;0.20;;;;;;;27.13;41.01;99129.25;7388057;19;20014;-79
2023/10/23 08:43:32;;;;;;;0.47;0.47;;;;;;;26.48;42.57;99132.44;7389337;19;20531;-79
2023/10/23 08:46:01;;;;;;;0.55;0.55;;;;;;;26.88;42.50;99126.03;7389696;19;20017;-79
2023/10/23 08:48:28;;;;;;;0.77;0.77;;;;;;;27.17;42.63;99118.09;7389537;19;20011;-79
2023/10/23 08:50:58;;;;;;;0.40;0.40;;;;;;;26.31;43.49;99126.91;7389701;19;20006;-79
2023/10/23 08:53:32;;;;;;;2.55;0.40;;;;;;;26.81;43.23;99122.00;7388728;19;20018;-79
2023/10/23 08:56:03;;;;;;;0.80;0.63;;;;;;;28.09;41.84;99117.97;7391264;19;20105;-79
2023/10/23 08:58:31;;;;;;;0.20;0.20;;;;;;;27.60;42.46;99121.81;7392631;19;19998;-79
2023/10/23 09:00:57;;;;;;;0.70;0.68;;;;;;;26.46;44.26;99120.88;7392264;19;20350;-79
2023/10/23 09:03:25;;;;;;;0.10;0.10;;;;;;;26.49;44.48;99113.94;7393403;19;20017;-79
2023/10/23 09:05:51;;;;;;;0.57;0.52;;;;;;;26.19;45.15;99118.19;7392529;19;20480;-80
2023/10/23 09:08:18;;;;;;;0.52;0.40;;;;;;;28.07;43.17;99106.41;7391421;19;20033;-79
2023/10/23 09:11:04;;;;;;;0.60;0.35;;;;;;;28.22;42.43;99108.81;7392593;19;20025;-79
2023/10/23 09:13:36;;;;;;;0.10;0.10;;;;;;;27.84;44.02;99105.50;7393474;19;20018;-78
2023/10/23 09:16:04;;;;;;;0.28;0.20;;;;;;;27.63;43.88;99103.41;7392130;19;20007;-79
2023/10/23 09:18:32;;;;;;;1.05;0.35;;;;;;;27.33;44.50;99109.91;7392375;19;20014;-80
2023/10/23 09:20:58;;;;;;;0.13;0.10;;;;;;;27.37;44.63;99110.97;7390507;19;20425;-79
2023/10/23 09:23:25;;;;;;;0.20;0.20;;;;;;;27.38;45.09;99111.69;7390667;19;20007;-79
2023/10/23 09:26:00;;;;;;;0.10;0.00;;;;;;;28.38;43.95;99112.75;7391921;19;20651;-80
2023/10/23 09:28:27;;;;;;;0.10;0.10;;;;;;;27.78;45.14;99106.63;7393374;19;20018;-79
2023/10/23 09:30:54;;;;;;;0.10;0.10;;;;;;;29.42;42.48;99105.66;7389661;19;20013;-79
2023/10/23 09:33:21;;;;;;;0.10;0.00;;;;;;;30.49;41.34;99104.13;7390847;19;20011;-79
2023/10/23 09:35:47;;;;;;;0.25;0.17;;;;;;;30.20;41.46;99100.97;7390287;19;20003;-79
2023/10/23 09:38:15;;;;;;;0.40;0.30;;;;;;;30.51;41.31;99101.34;7390365;19;20448;-79
2023/10/23 09:40:44;;;;;;;0.30;0.30;;;;;;;30.29;41.34;99108.69;7392825;19;20094;-79
2023/10/23 09:43:11;;;;;;;0.10;0.00;;;;;;;30.04;42.19;99100.06;7389486;19;20010;-79
2023/10/23 09:45:37;;;;;;;2.42;1.23;;;;;;;30.41;42.01;99097.88;7392668;19;20021;-79
2023/10/23 09:48:05;;;;;;;0.57;0.57;;;;;;;30.36;42.13;99101.94;7390399;19;20011;-79
2023/10/23 09:50:31;;;;;;;0.20;0.20;;;;;;;29.76;42.70;99099.13;7391657;19;20017;-79
2023/10/23 09:52:57;;;;;;;1.00;0.30;;;;;;;29.75;43.31;99097.66;7392053;19;20006;-79
2023/10/23 09:55:28;;;;;;;0.10;0.00;;;;;;;29.26;44.02;99098.97;7390801;19;20031;-79
2023/10/23 09:57:57;;;;;;;0.20;0.20;;;;;;;30.32;42.50;99093.09;7393933;19;20457;-79
2023/10/23 10:00:24;;;;;;;0.28;0.28;;;;;;;30.94;42.04;99084.31;7394035;19;20474;-80
2023/10/23 10:02:56;;;;;;;1.17;0.38;;;;;;;30.42;42.88;99093.66;7391595;19;20046;-78
2023/10/23 10:05:27;;;;;;;0.10;0.00;;;;;;;30.92;41.98;99087.84;7391828;19;20014;-79
2023/10/23 10:08:19;;;;;;;0.20;0.20;;;;;;;31.68;41.77;99087.56;7389453;19;20471;-80
2023/10/23 10:10:48;;;;;;;0.10;0.10;;;;;;;30.89;42.77;99076.84;7391422;19;20014;-79
2023/10/23 10:13:16;;;;;;;0.20;0.20;;;;;;;30.92;42.76;99082.09;7390344;19;20600;-79
2023/10/23 10:15:47;;;;;;;0.22;0.22;;;;;;;31.58;41.57;99087.03;7388561;19;20456;-80
2023/10/23 10:18:16;;;;;;;;;;;;;;;30.67;42.99;99090.72;7389937;19;20014;-79
2023/10/23 10:20:47;;;;;;;0.20;0.10;;;;;;;30.01;42.85;99089.81;7388559;19;19917;-79
2023/10/23 10:23:16;;;;;;;0.43;0.38;;;;;;;31.26;41.72;99078.16;7389123;19;20014;-79
2023/10/23 10:25:45;;;;;;;2.30;0.45;;;;;;;31.93;40.99;99081.63;7390036;19;20018;-78
2023/10/23 10:28:12;;;;;;;0.10;0.00;;;;;;;32.42;40.10;99068.22;7391665;19;20026;-79
2023/10/23 10:30:49;;;;;;;0.13;0.13;;;;;;;33.55;38.91;99073.47;7390622;19;20011;-79
2023/10/23 10:33:41;;;;;;;0.10;0.10;;;;;;;34.32;37.34;99065.88;7390959;19;20023;-82
2023/10/23 10:36:10;;;;;;;0.10;0.10;;;;;;;34.69;37.00;99070.97;7387704;19;20086;-84
2023/10/23 10:38:36;;;;;;;0.10;0.00;;;;;;;33.52;37.75;99069.00;7389222;19;20018;-81
2023/10/23 10:41:16;;;;;;;0.10;0.10;;;;;;;33.12;38.47;99070.06;7390189;19;20054;-85
2023/10/23 10:43:43;;;;;;;0.05;0.05;;;;;;;33.15;38.60;99077.44;7389577;19;20390;-93
2023/10/23 10:46:21;;;;;;;0.70;0.22;;;;;;;33.65;38.13;99068.13;7393451;19;21817;-88
2023/10/23 10:48:51;;;;;;;0.40;0.15;;;;;;;33.50;38.38;99060.22;7389345;19;20011;-89
2023/10/23 10:51:21;;;;;;;0.75;0.68;;;;;;;34.08;37.74;99062.00;7390594;19;20003;-88
2023/10/23 10:53:48;;;;;;;0.10;0.10;;;;;;;34.54;37.49;99060.28;7389074;19;20010;-80
2023/10/23 10:56:14;;;;;;;0.10;0.10;;;;;;;34.80;37.08;99055.50;7386701;19;20021;-80
2023/10/23 10:58:44;;;;;;;0.47;0.47;;;;;;;34.91;36.89;99051.59;7388328;19;20014;-80
2023/10/23 11:01:10;;;;;;;0.43;0.43;;;;;;;35.23;36.27;99054.94;7387265;19;20015;-80
2023/10/23 11:03:36;;;;;;;0.00;0.00;;;;;;;35.35;36.23;99053.22;7389575;19;20007;-83
2023/10/23 11:06:04;;;;;;;0.43;0.43;;;;;;;35.59;35.60;99048.31;7393245;19;20010;-83
2023/10/23 11:08:30;;;;;;;0.50;0.50;;;;;;;35.55;35.75;99045.28;7396157;19;20074;-80
2023/10/23 11:10:57;;;;;;;0.38;0.30;;;;;;;35.58;36.14;99032.34;7398267;19;20007;-82
2023/10/23 11:13:24;;;;;;;0.10;0.00;;;;;;;34.97;36.11;99034.44;7390029;19;20367;-81
2023/10/23 11:15:55;;;;;;;0.40;0.40;;;;;;;34.60;37.15;99035.22;7390636;19;20014;-83
2023/10/23 11:18:21;;;;;;;1.95;0.57;;;;;;;34.48;36.99;99025.31;7392154;19;20184;-89
2023/10/23 11:20:48;;;;;;;1.75;0.45;;;;;;;34.57;36.49;99021.31;7406621;19;20007;-90
2023/10/23 11:23:17;;;;;;;0.65;0.20;;;;;;;35.41;36.04;99015.78;7399767;19;20444;-89
2023/10/23 11:25:47;;;;;;;0.30;0.13;;;;;;;34.20;36.85;99014.09;7394452;19;20036;-89
2023/10/23 11:28:16;;;;;;;0.22;0.22;;;;;;;34.35;37.01;99015.38;7399266;19;20009;-89
2023/10/23 11:30:49;;;;;;;0.20;0.20;;;;;;;34.28;36.89;99008.63;7391157;19;20010;-87
2023/10/23 11:33:18;;;;;;;0.20;0.20;;;;;;;34.45;37.08;99000.59;7399373;19;20018;-85